Time;durP1;ratioP1;P1;durP2;ratioP2;P2;SDS_P1;SDS_P2;PMS_P1;PMS_P2;Temp;Humidity;BMP_temperature;BMP_pressure;BME280_temperature;BME280_humidity;BME280_pressure;Samples;Min_cycle;Max_cycle;Signal;HPM_P1;HPM_P2
2023/03/30 00:00:19;;;;;;;15.13;3.05;;;12.40;99.90;;;;;;5001607;28;20160;-60
2023/03/30 00:02:48;;;;;;;20.90;3.88;;;12.40;99.90;;;;;;5002594;28;20108;-60
2023/03/30 00:05:16;;;;;;;16.88;2.95;;;12.40;99.90;;;;;;5000772;28;20137;-60
2023/03/30 00:07:46;;;;;;;16.35;3.53;;;12.40;99.90;;;;;;4996723;28;20045;-61
2023/03/30 00:10:19;;;;;;;22.70;5.82;;;12.40;99.90;;;;;;5003598;28;20046;-61
2023/03/30 00:12:51;;;;;;;15.10;4.05;;;12.30;99.90;;;;;;5005432;28;20050;-60
2023/03/30 00:15:19;;;;;;;27.48;3.28;;;12.40;99.90;;;;;;5008578;28;20050;-60
2023/03/30 00:17:46;;;;;;;18.00;4.00;;;12.40;99.90;;;;;;5008562;28;20045;-60
2023/03/30 00:20:13;;;;;;;19.38;3.35;;;12.40;99.90;;;;;;5010327;28;20050;-60
2023/03/30 00:22:40;;;;;;;17.15;3.10;;;12.40;99.90;;;;;;5004204;28;20046;-60
2023/03/30 00:25:09;;;;;;;23.15;3.25;;;12.40;99.90;;;;;;4996563;28;20812;-60
2023/03/30 00:27:36;;;;;;;20.65;4.50;;;12.40;99.90;;;;;;5006034;28;20458;-60
2023/03/30 00:30:04;;;;;;;23.52;4.70;;;12.40;99.90;;;;;;5008788;28;20129;-59
2023/03/30 00:32:31;;;;;;;21.77;3.78;;;12.40;99.90;;;;;;5008614;28;20052;-60
2023/03/30 00:34:58;;;;;;;19.35;3.80;;;12.30;99.90;;;;;;5008110;28;20046;-60
2023/03/30 00:37:24;;;;;;;30.83;3.60;;;12.30;99.90;;;;;;5010709;28;20101;-60
2023/03/30 00:39:52;;;;;;;21.30;4.20;;;12.40;99.90;;;;;;5008666;28;20050;-60
2023/03/30 00:42:20;;;;;;;19.30;4.13;;;12.30;99.90;;;;;;5008574;28;20471;-60
2023/03/30 00:45:09;;;;;;;22.58;2.95;;;12.30;99.90;;;;;;5009464;28;20054;-60
2023/03/30 00:47:39;;;;;;;16.35;3.47;;;12.30;99.90;;;;;;5010258;28;20092;-60
2023/03/30 00:50:06;;;;;;;34.42;6.85;;;12.30;99.90;;;;;;5000799;28;20042;-60
2023/03/30 00:52:36;;;;;;;21.90;3.10;;;12.20;99.90;;;;;;4995332;28;20149;-59
2023/03/30 00:55:04;;;;;;;24.85;4.28;;;12.20;99.90;;;;;;4996389;28;20038;-60
2023/03/30 00:57:32;;;;;;;25.27;4.82;;;12.20;99.90;;;;;;5004242;28;20500;-60
2023/03/30 00:59:59;;;;;;;29.00;5.80;;;12.30;99.90;;;;;;5000037;28;20132;-60
2023/03/30 01:02:28;;;;;;;20.95;4.13;;;12.10;99.90;;;;;;5009851;28;20082;-60
2023/03/30 01:04:56;;;;;;;20.50;3.60;;;12.10;99.90;;;;;;4998937;28;20046;-60
2023/03/30 01:07:23;;;;;;;23.95;3.90;;;12.10;99.90;;;;;;4999651;28;20072;-60
2023/03/30 01:09:51;;;;;;;25.50;3.83;;;12.10;99.90;;;;;;4997566;28;20132;-59
2023/03/30 01:12:19;;;;;;;17.42;4.57;;;12.10;99.90;;;;;;4974464;28;20192;-62
2023/03/30 01:14:47;;;;;;;23.08;3.22;;;12.10;99.90;;;;;;5001728;28;20050;-60
2023/03/30 01:17:28;;;;;;;27.67;6.40;;;12.20;99.90;;;;;;5009642;28;20042;-60
2023/03/30 01:20:18;;;;;;;33.08;5.18;;;12.10;99.90;;;;;;5003277;28;20465;-60
2023/03/30 01:23:26;;;;;;;16.38;4.03;;;12.10;99.90;;;;;;4997348;28;20626;-60
2023/03/30 01:26:36;;;;;;;20.58;3.80;;;12.10;99.90;;;;;;5008949;28;20085;-60
2023/03/30 01:29:24;;;;;;;20.52;3.67;;;12.10;99.90;;;;;;4986930;28;20074;-60
2023/03/30 01:32:40;;;;;;;21.85;3.72;;;12.10;99.90;;;;;;4999003;28;20050;-60
2023/03/30 01:35:57;;;;;;;16.80;4.05;;;12.00;99.90;;;;;;4997959;28;20053;-60
2023/03/30 01:38:46;;;;;;;20.05;3.88;;;12.00;99.90;;;;;;4966450;28;20090;-60
2023/03/30 01:41:21;;;;;;;25.02;4.00;;;12.00;99.90;;;;;;4658920;28;9999854;-60
2023/03/30 01:44:12;;;;;;;31.10;4.55;;;12.00;99.90;;;;;;5007615;28;20129;-61
2023/03/30 01:47:13;;;;;;;22.65;4.07;;;12.00;99.90;;;;;;4995207;28;20074;-60
2023/03/30 01:49:53;;;;;;;31.80;4.80;;;12.00;99.90;;;;;;4984004;28;20056;-60
2023/03/30 01:52:35;;;;;;;29.00;5.50;;;12.00;99.90;;;;;;5000463;28;20134;-60
2023/03/30 01:55:12;;;;;;;22.33;4.13;;;12.00;99.90;;;;;;5008355;28;20049;-60
2023/03/30 01:57:41;;;;;;;22.73;4.25;;;11.90;99.90;;;;;;5000311;28;20133;-60
2023/03/30 02:00:12;;;;;;;29.77;5.20;;;12.00;99.90;;;;;;4993433;28;20045;-61
2023/03/30 02:02:53;;;;;;;36.63;6.15;;;12.00;99.90;;;;;;4999976;28;20496;-61
2023/03/30 02:05:21;;;;;;;21.00;4.10;;;12.00;99.90;;;;;;4973780;28;20049;-61
2023/03/30 02:07:50;;;;;;;26.52;5.35;;;11.90;99.90;;;;;;5008418;28;20096;-61
2023/03/30 02:10:17;;;;;;;26.45;4.03;;;11.90;99.90;;;;;;4993795;28;20058;-61
2023/03/30 02:12:44;;;;;;;33.38;5.90;;;11.80;99.90;;;;;;5008372;28;20485;-60
2023/03/30 02:15:11;;;;;;;35.03;6.38;;;11.80;99.90;;;;;;4993386;28;20058;-60
2023/03/30 02:17:40;;;;;;;25.83;5.28;;;11.70;99.90;;;;;;4998575;28;20053;-61
2023/03/30 02:20:09;;;;;;;29.95;4.70;;;11.70;99.90;;;;;;4979194;28;20373;-61
2023/03/30 02:22:36;;;;;;;21.88;4.60;;;11.70;99.90;;;;;;5007426;28;20057;-60
2023/03/30 02:25:04;;;;;;;19.20;4.25;;;11.70;99.90;;;;;;4996808;28;20131;-60
2023/03/30 02:27:31;;;;;;;25.60;3.97;;;11.60;99.90;;;;;;5004947;28;20046;-59
2023/03/30 02:29:58;;;;;;;21.30;3.15;;;11.60;99.90;;;;;;4996250;28;20050;-60
2023/03/30 02:32:31;;;;;;;21.35;3.38;;;11.50;99.90;;;;;;5007910;28;20103;-61
2023/03/30 02:35:10;;;;;;;17.83;4.07;;;11.50;99.90;;;;;;4995680;28;20096;-60
2023/03/30 02:38:05;;;;;;;17.10;3.25;;;11.60;99.90;;;;;;5008159;28;20104;-60
2023/03/30 02:40:34;;;;;;;20.23;3.55;;;11.50;99.90;;;;;;4994283;28;20060;-59
2023/03/30 02:43:20;;;;;;;27.73;5.57;;;11.60;99.90;;;;;;5004716;28;20128;-61
2023/03/30 02:45:51;;;;;;;23.55;4.38;;;11.60;99.90;;;;;;4990850;28;20050;-60
2023/03/30 02:48:41;;;;;;;16.45;3.53;;;11.60;99.90;;;;;;5007967;28;20046;-60
2023/03/30 02:51:23;;;;;;;25.08;3.60;;;11.70;99.90;;;;;;4994895;28;20050;-61
2023/03/30 02:54:11;;;;;;;16.85;3.05;;;11.70;99.90;;;;;;4997792;28;20038;-61
2023/03/30 02:56:53;;;;;;;20.25;5.45;;;11.70;99.90;;;;;;5008241;28;20077;-60
2023/03/30 02:59:20;;;;;;;24.25;3.85;;;11.70;99.90;;;;;;5006921;28;20092;-61
2023/03/30 03:01:57;;;;;;;20.75;3.90;;;11.70;99.90;;;;;;4993389;28;20054;-61
2023/03/30 03:04:24;;;;;;;23.90;3.67;;;11.60;99.90;;;;;;4997349;28;20046;-61
2023/03/30 03:06:51;;;;;;;20.58;3.25;;;11.60;99.90;;;;;;4993976;28;20046;-60
2023/03/30 03:09:19;;;;;;;25.05;4.30;;;11.50;99.90;;;;;;4998731;28;20058;-60
2023/03/30 03:11:46;;;;;;;23.23;4.85;;;11.50;99.90;;;;;;5008562;28;20053;-61
2023/03/30 03:14:13;;;;;;;23.92;3.40;;;11.50;99.90;;;;;;5007921;28;20091;-61
2023/03/30 03:16:39;;;;;;;25.13;4.18;;;11.50;99.90;;;;;;5008568;28;20056;-61
2023/03/30 03:19:07;;;;;;;19.92;4.50;;;11.50;99.90;;;;;;5008508;28;20123;-59
2023/03/30 03:21:33;;;;;;;15.63;3.35;;;11.50;99.90;;;;;;5008531;28;20092;-60
2023/03/30 03:24:00;;;;;;;25.17;3.88;;;11.40;99.90;;;;;;5007731;28;20096;-60
2023/03/30 03:26:27;;;;;;;24.95;5.70;;;11.40;99.90;;;;;;5005742;28;20192;-60
2023/03/30 03:28:54;;;;;;;21.25;3.70;;;11.30;99.90;;;;;;5008524;28;20108;-60
2023/03/30 03:31:23;;;;;;;28.50;3.58;;;11.30;99.90;;;;;;5007904;28;20508;-61
2023/03/30 03:33:50;;;;;;;20.40;3.20;;;11.20;99.90;;;;;;5007469;28;20050;-60
2023/03/30 03:36:16;;;;;;;23.58;3.70;;;11.20;99.90;;;;;;5007278;28;20133;-60
2023/03/30 03:38:43;;;;;;;16.45;3.50;;;11.20;99.90;;;;;;5007778;28;20054;-59
2023/03/30 03:41:10;;;;;;;19.70;3.22;;;11.20;99.90;;;;;;5000241;28;20061;-60
2023/03/30 03:43:37;;;;;;;13.52;2.75;;;11.10;99.90;;;;;;4976079;28;20501;-60
2023/03/30 03:46:03;;;;;;;14.77;2.53;;;11.10;99.90;;;;;;5012006;28;20056;-60
2023/03/30 03:48:30;;;;;;;14.93;4.65;;;11.10;99.90;;;;;;5007933;28;20078;-60
2023/03/30 03:50:57;;;;;;;23.30;3.38;;;11.00;99.90;;;;;;5007270;28;20518;-61
2023/03/30 03:53:26;;;;;;;20.00;2.75;;;11.00;99.90;;;;;;5007636;28;20054;-61
2023/03/30 03:55:53;;;;;;;13.77;2.58;;;11.00;99.90;;;;;;5006936;28;20116;-60
2023/03/30 03:58:20;;;;;;;13.90;2.38;;;11.00;99.90;;;;;;4996625;28;20134;-60
2023/03/30 04:00:47;;;;;;;9.68;2.13;;;11.00;99.90;;;;;;4999250;28;20236;-61
2023/03/30 04:03:14;;;;;;;14.27;2.20;;;11.00;99.90;;;;;;5011607;28;20197;-60
2023/03/30 04:05:41;;;;;;;15.77;2.60;;;10.90;99.90;;;;;;5005527;28;20050;-59
2023/03/30 04:08:11;;;;;;;16.15;3.20;;;10.90;99.90;;;;;;5011107;28;20128;-60
2023/03/30 04:10:38;;;;;;;16.00;2.15;;;10.90;99.90;;;;;;5010751;28;20053;-60
2023/03/30 04:13:05;;;;;;;21.70;3.33;;;10.90;99.90;;;;;;5010995;28;20041;-60
2023/03/30 04:15:32;;;;;;;19.42;3.42;;;10.80;99.90;;;;;;5009951;28;20058;-62
2023/03/30 04:18:00;;;;;;;18.23;3.40;;;10.80;99.90;;;;;;5011064;28;20488;-60
2023/03/30 04:20:27;;;;;;;24.58;3.35;;;10.80;99.90;;;;;;5006509;28;20057;-60
2023/03/30 04:22:54;;;;;;;15.18;2.60;;;10.90;99.90;;;;;;5011014;28;20129;-60
2023/03/30 04:25:24;;;;;;;30.42;4.20;;;10.80;99.90;;;;;;5008283;28;20046;-60
2023/03/30 04:27:51;;;;;;;20.27;4.32;;;10.80;99.90;;;;;;5011197;28;20050;-59
2023/03/30 04:30:18;;;;;;;34.78;6.05;;;10.90;99.90;;;;;;5010645;28;20484;-60
2023/03/30 04:32:53;;;;;;;22.83;4.22;;;10.80;99.90;;;;;;5010968;28;20688;-61
2023/03/30 04:35:20;;;;;;;20.65;5.10;;;10.90;99.90;;;;;;4995038;28;20058;-60
2023/03/30 04:37:51;;;;;;;24.05;4.75;;;10.80;99.90;;;;;;5010659;28;20050;-60
2023/03/30 04:40:18;;;;;;;20.05;4.05;;;10.80;99.90;;;;;;5010778;28;20077;-61
2023/03/30 04:42:48;;;;;;;28.25;4.85;;;10.80;99.90;;;;;;5010443;28;20526;-61
2023/03/30 04:45:19;;;;;;;24.77;5.82;;;10.70;99.90;;;;;;5010236;28;20042;-62
2023/03/30 04:47:46;;;;;;;24.90;4.53;;;10.70;99.90;;;;;;5010343;28;20112;-61
2023/03/30 04:50:13;;;;;;;14.57;3.00;;;10.70;99.90;;;;;;5010459;28;20050;-61
2023/03/30 04:52:40;;;;;;;24.50;4.53;;;10.60;99.90;;;;;;5001665;28;20128;-61
2023/03/30 04:55:08;;;;;;;34.22;5.13;;;10.60;99.90;;;;;;5009990;28;20046;-59
2023/03/30 04:57:35;;;;;;;35.22;5.60;;;10.50;99.90;;;;;;5011974;28;20037;-60
2023/03/30 05:00:05;;;;;;;22.95;4.00;;;10.50;99.90;;;;;;4999249;28;20060;-60
2023/03/30 05:02:31;;;;;;;25.95;4.30;;;10.50;99.90;;;;;;5008567;28;20129;-60
2023/03/30 05:04:58;;;;;;;33.22;6.68;;;10.50;99.90;;;;;;5009324;28;20076;-60
2023/03/30 05:07:25;;;;;;;18.70;4.35;;;10.50;99.90;;;;;;5009510;28;20046;-60
2023/03/30 05:09:51;;;;;;;31.23;4.95;;;10.50;99.90;;;;;;5010012;28;20041;-60
2023/03/30 05:12:18;;;;;;;26.40;4.32;;;10.40;99.90;;;;;;5009467;28;20060;-60
2023/03/30 05:14:45;;;;;;;31.70;6.85;;;10.40;99.90;;;;;;5009418;28;20132;-60
2023/03/30 05:17:12;;;;;;;34.22;6.00;;;10.40;99.90;;;;;;5011766;28;20049;-60
2023/03/30 05:19:39;;;;;;;28.67;3.85;;;10.40;99.90;;;;;;5009291;28;20046;-61
2023/03/30 05:22:05;;;;;;;38.20;4.40;;;10.50;99.90;;;;;;5009516;28;20053;-61
2023/03/30 05:24:33;;;;;;;22.85;4.35;;;10.50;99.90;;;;;;5005725;28;20125;-64
2023/03/30 05:27:01;;;;;;;24.17;5.10;;;10.50;99.90;;;;;;5014315;28;20129;-61
2023/03/30 05:29:27;;;;;;;26.85;4.15;;;10.50;99.90;;;;;;5008947;28;20092;-61
2023/03/30 05:31:54;;;;;;;34.10;5.30;;;10.50;99.90;;;;;;5009626;28;20365;-60
2023/03/30 05:34:21;;;;;;;33.70;7.60;;;10.50;99.90;;;;;;4995246;28;20042;-60
2023/03/30 05:36:48;;;;;;;38.53;5.63;;;10.50;99.90;;;;;;5012630;28;20477;-60
2023/03/30 05:39:15;;;;;;;32.92;5.10;;;10.50;99.90;;;;;;4986058;28;20484;-59
2023/03/30 05:41:42;;;;;;;32.88;7.90;;;10.50;99.90;;;;;;4978629;28;20050;-60
2023/03/30 05:44:09;;;;;;;41.13;5.28;;;10.40;99.90;;;;;;5003501;28;20397;-60
2023/03/30 05:46:35;;;;;;;42.90;8.10;;;10.40;99.90;;;;;;5000303;28;20514;-60
2023/03/30 05:49:02;;;;;;;37.20;5.32;;;10.40;99.90;;;;;;4990973;28;20069;-59
2023/03/30 05:51:29;;;;;;;38.83;6.63;;;10.40;99.90;;;;;;5012059;28;20136;-60
2023/03/30 05:53:56;;;;;;;39.33;7.72;;;10.50;99.90;;;;;;5015206;28;20100;-62
2023/03/30 05:56:23;;;;;;;40.92;6.85;;;10.50;99.90;;;;;;5008819;28;20042;-60
2023/03/30 05:58:50;;;;;;;39.03;4.97;;;10.50;99.90;;;;;;5008362;28;20519;-61
2023/03/30 06:01:19;;;;;;;39.13;6.93;;;10.60;99.90;;;;;;5009094;28;20050;-62
2023/03/30 06:03:47;;;;;;;36.70;6.30;;;10.60;99.90;;;;;;5018806;28;20130;-60
2023/03/30 06:06:14;;;;;;;54.28;7.00;;;10.60;99.90;;;;;;5007421;28;20133;-60
2023/03/30 06:08:41;;;;;;;33.85;5.30;;;10.70;99.90;;;;;;4990363;28;20137;-60
2023/03/30 06:11:08;;;;;;;36.75;6.50;;;10.80;99.90;;;;;;5008212;28;20042;-60
2023/03/30 06:13:35;;;;;;;39.72;6.68;;;10.70;99.90;;;;;;4991689;28;20045;-60
2023/03/30 06:16:02;;;;;;;34.80;6.30;;;10.70;99.90;;;;;;5007916;28;20050;-60
2023/03/30 06:18:29;;;;;;;33.92;6.40;;;10.70;99.90;;;;;;5010190;28;20049;-62
2023/03/30 06:20:56;;;;;;;47.97;7.10;;;10.70;99.90;;;;;;5006083;28;20042;-61
2023/03/30 06:23:23;;;;;;;37.90;8.10;;;10.70;99.90;;;;;;5009716;28;20600;-64
2023/03/30 06:25:54;;;;;;;34.65;6.10;;;10.70;99.90;;;;;;5007896;28;20429;-61
2023/03/30 06:28:21;;;;;;;31.25;7.78;;;10.70;99.90;;;;;;5012812;28;20405;-60
2023/03/30 06:30:48;;;;;;;34.95;7.28;;;10.80;99.90;;;;;;5007610;28;20077;-61
2023/03/30 06:33:16;;;;;;;30.10;5.93;;;10.80;99.90;;;;;;4997170;28;20054;-61
2023/03/30 06:35:47;;;;;;;46.58;6.20;;;10.80;99.90;;;;;;4971357;28;20050;-61
2023/03/30 06:38:14;;;;;;;36.85;5.72;;;10.80;99.90;;;;;;5014464;28;20138;-60
2023/03/30 06:40:41;;;;;;;36.10;6.55;;;10.90;99.90;;;;;;5001816;28;20126;-59
2023/03/30 06:43:12;;;;;;;31.75;6.88;;;10.90;99.90;;;;;;4995117;28;20053;-60
2023/03/30 06:45:39;;;;;;;31.85;6.32;;;11.00;99.90;;;;;;5002202;28;20136;-60
2023/03/30 06:48:06;;;;;;;41.25;6.85;;;11.10;99.90;;;;;;5015607;28;20073;-60
2023/03/30 06:50:33;;;;;;;32.95;5.57;;;11.20;99.90;;;;;;5005187;28;20037;-61
2023/03/30 06:53:00;;;;;;;47.50;8.30;;;11.20;99.90;;;;;;5005705;28;20068;-60
2023/03/30 06:55:27;;;;;;;32.85;6.00;;;11.30;99.90;;;;;;5003476;28;20046;-61
2023/03/30 06:57:54;;;;;;;24.98;6.05;;;11.40;99.90;;;;;;5006818;28;20061;-61
2023/03/30 07:00:21;;;;;;;37.47;7.07;;;11.50;99.90;;;;;;5001322;28;20845;-62
2023/03/30 07:02:48;;;;;;;35.80;5.70;;;11.50;99.90;;;;;;4985671;28;20085;-60
2023/03/30 07:05:15;;;;;;;37.90;6.68;;;11.60;99.90;;;;;;5004865;28;20104;-62
2023/03/30 07:07:42;;;;;;;30.33;5.10;;;11.60;99.90;;;;;;5005516;28;20057;-61
2023/03/30 07:10:09;;;;;;;43.85;6.53;;;11.70;99.90;;;;;;5005533;28;20042;-60
2023/03/30 07:12:37;;;;;;;33.83;6.03;;;11.70;99.90;;;;;;5004165;28;20150;-60
2023/03/30 07:15:05;;;;;;;37.97;5.30;;;11.70;99.90;;;;;;5007357;28;20052;-60
2023/03/30 07:17:33;;;;;;;42.22;6.95;;;11.70;99.90;;;;;;4996820;28;20051;-59
2023/03/30 07:20:00;;;;;;;38.10;5.47;;;11.80;99.90;;;;;;5006688;28;20097;-60
2023/03/30 07:22:27;;;;;;;32.90;5.32;;;11.80;99.90;;;;;;5007185;28;20056;-60
2023/03/30 07:24:54;;;;;;;32.15;5.20;;;11.80;99.90;;;;;;5007269;28;20422;-60
2023/03/30 07:27:23;;;;;;;32.80;6.32;;;11.80;99.90;;;;;;5006728;28;20054;-60
2023/03/30 07:29:51;;;;;;;34.22;8.48;;;11.90;99.90;;;;;;4994867;28;20050;-59
2023/03/30 07:32:18;;;;;;;33.72;5.65;;;11.80;99.90;;;;;;5007231;28;20342;-60
2023/03/30 07:34:46;;;;;;;32.85;5.35;;;11.90;99.90;;;;;;5006390;28;20077;-59
2023/03/30 07:37:13;;;;;;;37.20;6.10;;;12.00;99.90;;;;;;5010214;28;20129;-59
2023/03/30 07:39:46;;;;;;;28.67;5.05;;;11.90;99.90;;;;;;5009272;28;20077;-59
2023/03/30 07:42:13;;;;;;;41.28;6.68;;;12.00;99.90;;;;;;5013480;28;20093;-59
2023/03/30 07:44:40;;;;;;;32.65;5.05;;;12.00;99.90;;;;;;5010365;28;20057;-59
2023/03/30 07:47:07;;;;;;;31.30;4.50;;;12.00;99.90;;;;;;5007756;28;20525;-59
2023/03/30 07:49:34;;;;;;;23.20;4.93;;;12.00;99.90;;;;;;5009042;28;20049;-59
2023/03/30 07:52:01;;;;;;;33.67;5.85;;;12.00;99.90;;;;;;4992289;28;20042;-59
2023/03/30 07:54:27;;;;;;;41.10;6.40;;;12.10;99.90;;;;;;4996258;28;20081;-59
2023/03/30 07:56:54;;;;;;;35.70;7.63;;;12.10;99.90;;;;;;5003776;28;20136;-60
2023/03/30 07:59:22;;;;;;;29.42;5.70;;;12.10;99.90;;;;;;5008571;28;20172;-61
2023/03/30 08:01:50;;;;;;;31.95;5.82;;;12.20;99.90;;;;;;5011007;28;20054;-61
2023/03/30 08:04:17;;;;;;;30.88;5.53;;;12.20;99.90;;;;;;5012305;28;20042;-61
2023/03/30 08:06:44;;;;;;;30.27;5.65;;;12.10;99.90;;;;;;5010960;28;20064;-61
2023/03/30 08:09:11;;;;;;;31.60;5.30;;;12.20;99.90;;;;;;5010459;28;20046;-60
2023/03/30 08:11:38;;;;;;;36.03;7.15;;;12.20;99.90;;;;;;4998469;28;20564;-61
2023/03/30 08:14:05;;;;;;;35.03;6.25;;;12.20;99.90;;;;;;4998390;28;20121;-60
2023/03/30 08:16:32;;;;;;;27.95;4.40;;;12.30;99.90;;;;;;5010006;28;20682;-60
2023/03/30 08:18:59;;;;;;;27.25;4.63;;;12.30;99.90;;;;;;4985430;28;20042;-60
2023/03/30 08:21:26;;;;;;;25.90;4.82;;;12.40;99.90;;;;;;5009791;28;20050;-60
2023/03/30 08:23:56;;;;;;;31.83;5.97;;;12.40;99.90;;;;;;5011927;28;20088;-60
2023/03/30 08:26:24;;;;;;;36.10;6.57;;;12.40;99.90;;;;;;5010128;28;20129;-61
2023/03/30 08:28:51;;;;;;;32.78;6.90;;;12.40;99.90;;;;;;5012970;28;20121;-60
2023/03/30 08:31:19;;;;;;;36.85;6.25;;;12.40;99.90;;;;;;5010268;28;20057;-59
2023/03/30 08:33:47;;;;;;;31.55;5.90;;;12.50;99.90;;;;;;4998716;28;20077;-62
2023/03/30 08:36:14;;;;;;;30.70;6.70;;;12.50;99.90;;;;;;5009324;28;20428;-60
2023/03/30 08:38:41;;;;;;;38.03;6.10;;;12.60;99.90;;;;;;5009349;28;20085;-60
2023/03/30 08:41:26;;;;;;;31.00;5.65;;;12.60;99.90;;;;;;5007305;28;20497;-60
2023/03/30 08:43:56;;;;;;;34.17;5.18;;;12.70;99.90;;;;;;5007296;28;20084;-60
2023/03/30 08:46:23;;;;;;;43.40;6.53;;;12.80;99.90;;;;;;5009538;28;20054;-60
2023/03/30 08:48:50;;;;;;;22.13;5.10;;;12.90;99.90;;;;;;5009531;28;20045;-60
2023/03/30 08:51:17;;;;;;;31.40;6.53;;;13.00;99.90;;;;;;4995387;28;20042;-61
2023/03/30 08:53:43;;;;;;;30.45;4.47;;;13.20;99.90;;;;;;5006029;28;20050;-60
2023/03/30 08:56:17;;;;;;;31.10;5.32;;;13.20;99.90;;;;;;5000527;28;20128;-60
2023/03/30 08:59:14;;;;;;;37.35;5.40;;;13.20;99.90;;;;;;4994703;28;20513;-60
2023/03/30 09:01:55;;;;;;;40.85;10.70;;;13.20;99.90;;;;;;4988185;28;20138;-60
2023/03/30 09:04:34;;;;;;;23.02;5.22;;;13.30;99.90;;;;;;4994771;28;20108;-61
2023/03/30 09:07:18;;;;;;;29.35;5.72;;;13.30;99.90;;;;;;5006219;28;20089;-62
2023/03/30 09:09:45;;;;;;;30.42;4.60;;;13.30;99.90;;;;;;5006247;28;20045;-60
2023/03/30 09:12:33;;;;;;;29.73;5.18;;;13.30;99.90;;;;;;5002073;28;20054;-60
2023/03/30 09:15:14;;;;;;;31.80;5.68;;;13.30;99.90;;;;;;4996732;28;20103;-60
2023/03/30 09:17:59;;;;;;;35.95;5.65;;;13.40;99.90;;;;;;5009358;28;20162;-61
2023/03/30 09:20:30;;;;;;;32.78;5.05;;;13.50;99.90;;;;;;5004305;28;20065;-60
2023/03/30 09:23:00;;;;;;;33.95;5.95;;;13.70;99.90;;;;;;5009137;28;20143;-60
2023/03/30 09:25:35;;;;;;;37.00;5.95;;;13.60;99.90;;;;;;5008780;28;20070;-60
2023/03/30 09:28:19;;;;;;;41.00;5.88;;;13.70;99.90;;;;;;5004345;28;20558;-60
2023/03/30 09:30:58;;;;;;;29.95;4.45;;;13.90;99.90;;;;;;5004504;28;20049;-60
2023/03/30 09:33:31;;;;;;;28.90;6.35;;;14.10;99.90;;;;;;4996932;28;20049;-61
2023/03/30 09:36:36;;;;;;;28.77;6.50;;;14.10;99.90;;;;;;5008390;28;20050;-60
2023/03/30 09:39:29;;;;;;;36.42;5.47;;;14.20;99.90;;;;;;4988201;28;20552;-59
2023/03/30 09:42:18;;;;;;;25.95;5.80;;;14.30;99.90;;;;;;4993198;28;20037;-60
2023/03/30 09:44:47;;;;;;;36.50;5.38;;;14.50;99.90;;;;;;5003255;28;20057;-60
2023/03/30 09:47:28;;;;;;;30.08;5.57;;;14.60;99.90;;;;;;5005551;28;20082;-60
2023/03/30 09:49:56;;;;;;;33.15;5.60;;;14.40;99.90;;;;;;5007316;28;20093;-62
2023/03/30 09:52:24;;;;;;;38.00;5.88;;;14.20;99.90;;;;;;5007957;28;20167;-60
2023/03/30 09:54:51;;;;;;;25.48;5.45;;;13.80;99.90;;;;;;4996067;28;20125;-61
2023/03/30 09:57:26;;;;;;;40.45;6.82;;;13.90;99.90;;;;;;5007673;28;20054;-60
2023/03/30 09:59:56;;;;;;;40.00;6.47;;;13.90;99.90;;;;;;4996261;28;20501;-61
2023/03/30 10:02:24;;;;;;;39.30;7.07;;;13.90;99.90;;;;;;5001566;28;20482;-61
2023/03/30 10:04:51;;;;;;;37.42;5.50;;;14.00;99.90;;;;;;5008092;28;20050;-61
2023/03/30 10:07:22;;;;;;;30.67;5.38;;;14.00;99.90;;;;;;5000512;28;20045;-61
2023/03/30 10:09:49;;;;;;;37.05;5.55;;;14.10;99.90;;;;;;5008651;28;20246;-59
2023/03/30 10:12:16;;;;;;;38.20;6.75;;;14.20;99.90;;;;;;4998994;28;20056;-59
2023/03/30 10:14:42;;;;;;;27.58;5.68;;;14.40;99.90;;;;;;5010285;28;20535;-59
2023/03/30 10:17:19;;;;;;;37.72;6.95;;;14.60;99.90;;;;;;5005131;28;20050;-59
2023/03/30 10:19:45;;;;;;;39.08;6.18;;;14.70;99.90;;;;;;5000579;28;20491;-60
2023/03/30 10:22:22;;;;;;;31.38;6.65;;;14.70;99.90;;;;;;5007769;28;20084;-61
2023/03/30 10:24:56;;;;;;;31.33;5.40;;;14.70;99.90;;;;;;5007529;28;20058;-60
2023/03/30 10:27:32;;;;;;;33.28;5.95;;;14.60;99.90;;;;;;5000476;28;20061;-62
2023/03/30 10:30:10;;;;;;;35.53;6.18;;;14.50;99.90;;;;;;5000735;28;20054;-60
2023/03/30 10:32:37;;;;;;;22.02;5.40;;;14.60;99.90;;;;;;5007550;28;20056;-60
2023/03/30 10:35:07;;;;;;;38.63;5.32;;;14.60;99.90;;;;;;5007283;28;20136;-60
2023/03/30 10:37:39;;;;;;;30.90;5.38;;;14.60;99.90;;;;;;4989797;28;20497;-60
2023/03/30 10:40:32;;;;;;;30.13;5.82;;;14.60;99.90;;;;;;4997797;28;20058;-60
2023/03/30 10:42:59;;;;;;;29.83;5.57;;;14.50;99.90;;;;;;4996475;28;20128;-60
2023/03/30 10:45:37;;;;;;;38.70;6.07;;;14.40;99.90;;;;;;5001723;28;20052;-60
2023/03/30 10:48:20;;;;;;;33.65;6.45;;;14.50;99.90;;;;;;4990449;28;20053;-60
2023/03/30 10:50:50;;;;;;;29.23;4.63;;;14.50;99.90;;;;;;5007419;28;20072;-60
2023/03/30 10:53:54;;;;;;;28.15;4.97;;;14.50;99.90;;;;;;4992432;28;20046;-61
2023/03/30 10:56:33;;;;;;;27.55;4.80;;;14.60;99.90;;;;;;5007827;28;20053;-60
2023/03/30 10:59:18;;;;;;;35.22;8.70;;;14.60;99.90;;;;;;4999770;28;20050;-60
2023/03/30 11:02:06;;;;;;;30.02;6.28;;;14.60;99.90;;;;;;5007559;28;20498;-61
2023/03/30 11:04:45;;;;;;;36.15;5.40;;;14.40;99.90;;;;;;5001375;28;20133;-61
2023/03/30 11:07:19;;;;;;;32.38;5.35;;;14.20;99.90;;;;;;4996832;28;20053;-61
2023/03/30 11:09:53;;;;;;;37.22;4.78;;;13.90;99.90;;;;;;5006977;28;20130;-59
2023/03/30 11:12:21;;;;;;;26.45;5.05;;;13.60;99.90;;;;;;4999236;28;20046;-60
2023/03/30 11:14:50;;;;;;;29.13;6.07;;;13.40;99.90;;;;;;5004744;28;20473;-60
2023/03/30 11:17:40;;;;;;;27.92;4.68;;;13.40;99.90;;;;;;4999359;28;20038;-60
2023/03/30 11:20:29;;;;;;;28.13;4.78;;;13.30;99.90;;;;;;5005199;28;20050;-60
2023/03/30 11:23:24;;;;;;;23.73;5.10;;;13.20;99.90;;;;;;4990259;28;20517;-60
2023/03/30 11:26:07;;;;;;;31.55;7.07;;;13.20;99.90;;;;;;5009285;28;20045;-61
2023/03/30 11:28:58;;;;;;;29.90;7.50;;;13.30;99.90;;;;;;5006474;28;20050;-59
2023/03/30 11:31:40;;;;;;;32.45;4.53;;;13.50;99.90;;;;;;5010994;28;20048;-59
2023/03/30 11:34:20;;;;;;;26.73;5.22;;;13.60;99.90;;;;;;4994735;28;20042;-60
2023/03/30 11:36:47;;;;;;;32.25;5.22;;;13.70;99.90;;;;;;4996700;28;20141;-59
2023/03/30 11:39:15;;;;;;;28.02;6.15;;;13.80;99.90;;;;;;5011499;28;20335;-60
2023/03/30 11:42:23;;;;;;;31.45;4.85;;;14.00;99.90;;;;;;5009661;28;20081;-60
2023/03/30 11:44:50;;;;;;;19.70;4.88;;;14.10;99.90;;;;;;5001252;28;20042;-60
2023/03/30 11:47:20;;;;;;;24.55;4.88;;;14.10;99.90;;;;;;5009743;28;20364;-60
2023/03/30 11:49:50;;;;;;;24.52;4.93;;;14.20;99.90;;;;;;5016948;28;20477;-61
2023/03/30 11:52:38;;;;;;;26.17;4.47;;;14.30;99.90;;;;;;5010239;28;20132;-60
2023/03/30 11:55:14;;;;;;;25.65;4.40;;;14.50;99.90;;;;;;5010594;28;20145;-60
2023/03/30 11:58:00;;;;;;;27.00;3.95;;;14.60;99.90;;;;;;5007445;28;20077;-60
2023/03/30 12:00:46;;;;;;;26.52;4.57;;;14.80;99.90;;;;;;5016754;28;20425;-60
2023/03/30 12:03:28;;;;;;;;;;;14.80;99.90;;;;;;4980113;28;20118;-59
2023/03/30 12:06:05;;;;;;;20.25;4.38;;;15.00;99.90;;;;;;5020131;28;20288;-59
2023/03/30 12:08:51;;;;;;;16.23;4.30;;;15.10;99.90;;;;;;5004060;28;20046;-59
2023/03/30 12:11:38;;;;;;;25.40;5.22;;;15.30;99.90;;;;;;4997828;28;20154;-60
2023/03/30 12:14:17;;;;;;;20.05;5.18;;;15.40;99.90;;;;;;5005569;28;20073;-60
2023/03/30 12:16:45;;;;;;;28.48;4.28;;;15.10;99.90;;;;;;5021353;28;20094;-60
2023/03/30 12:19:14;;;;;;;26.05;5.32;;;15.00;99.90;;;;;;5000790;28;20045;-60
2023/03/30 12:21:57;;;;;;;28.63;5.97;;;15.00;99.90;;;;;;5009763;28;20050;-60
2023/03/30 12:25:20;;;;;;;29.38;5.10;;;15.00;99.90;;;;;;4994179;28;20053;-60
2023/03/30 12:27:52;;;;;;;22.42;4.85;;;15.10;99.90;;;;;;4934433;28;20054;-60
2023/03/30 12:30:25;;;;;;;21.77;5.00;;;15.20;99.90;;;;;;5003003;28;20060;-61
2023/03/30 12:33:03;;;;;;;22.33;4.88;;;15.10;99.90;;;;;;5009712;28;20048;-60
2023/03/30 12:35:52;;;;;;;31.75;4.88;;;15.20;99.90;;;;;;5000996;28;20085;-60
2023/03/30 12:38:22;;;;;;;31.67;4.38;;;15.40;99.90;;;;;;5008711;28;20137;-61
2023/03/30 12:41:13;;;;;;;27.27;5.05;;;15.60;99.90;;;;;;5000417;28;20109;-60
2023/03/30 12:44:21;;;;;;;42.05;5.93;;;15.70;99.90;;;;;;5007456;28;20053;-59
2023/03/30 12:47:17;;;;;;;27.13;5.10;;;15.70;99.90;;;;;;4967368;28;20122;-59
2023/03/30 12:49:57;;;;;;;26.50;4.82;;;15.70;99.90;;;;;;5005991;28;20089;-58
2023/03/30 12:53:01;;;;;;;27.50;5.22;;;15.70;99.90;;;;;;5009837;28;20057;-59
2023/03/30 12:55:53;;;;;;;29.70;5.45;;;15.80;99.90;;;;;;5013871;28;20435;-60
2023/03/30 12:58:32;;;;;;;28.65;4.43;;;15.90;99.90;;;;;;5003450;28;20049;-59
2023/03/30 13:01:26;;;;;;;28.98;8.15;;;15.90;99.90;;;;;;5018755;28;20285;-60
2023/03/30 13:03:54;;;;;;;31.40;4.45;;;15.70;99.90;;;;;;5009569;28;20409;-60
2023/03/30 13:06:33;;;;;;;23.70;4.82;;;15.60;99.90;;;;;;5004808;28;20068;-59